Hovedside
METAR-TAF:

METAR-TAF

Lufthavner :

Henri Coandă internasjonale lufthavn

Bucureşti, Romania

breddegrad: 44-33N, lengdegrad: 026-06E, høyde over havet: 95 m

Gjeldene værobservasjon

Denne rapporten ble laget for 36 minutter siden, klokken 15:00 UTC
Vind 4 kt fra Øst-sørøst, skiftende mellom Øst og Sør-sørøst
Temperatur 25°C
Luftfuktighet 41%
Trykk 1020 hPa
Sikt 10 km eller mer
ingen skyer under 1500 m og ingen bygeskyer

METAR: LROP 201500Z 12004KT 090V150 CAVOK 25/11 Q1020 NOSIG

Tid: 18:36 (15:36 UTC)

Varsel

Denne rapporten ble laget for 4 timer og 36 minutter siden, klokken 11:00 UTC
Varsel gyldig fra 20. klokken 12 UTC til 21. klokken 12 UTC
Vind 4 kt fra skiftende retning
Sikt 10 km eller mer
ingen skyer under 1500 m og ingen bygeskyer

TAF: LROP 201100Z 2012/2112 VRB04KT CAVOK

Værobservasjoner og værvarsel for over 4000 flyplasser (METAR- og TAF-rapporter).

Tilgjengelige stasjoner er representert av de røde og gule prikkene på kartet.

Hold musepekeren over prikken for å se navnet på stasjonen.

Klikk så for å se værobservasjoner og -varsler.

For å forandre kartet kan du klikke på den grønne knappen med svart kryss for å zoome inn, på den grønne knappen med strek for å zoome ut, eller på de grønne pilene for å se tilstøtende kart.


METAR-TAF: